sensor_id;sensor_type;location;lat;lon;timestamp;P1;durP1;ratioP1;P2;durP2;ratioP2
17494;SDS011;8864;51.970;4.614;2023-07-29T00:01:36;2.42;;;0.80;;
17494;SDS011;8864;51.970;4.614;2023-07-29T00:04:05;2.97;;;0.88;;
17494;SDS011;8864;51.970;4.614;2023-07-29T00:06:33;1.48;;;0.65;;
17494;SDS011;8864;51.970;4.614;2023-07-29T00:09:00;3.17;;;1.00;;
17494;SDS011;8864;51.970;4.614;2023-07-29T00:11:27;1.75;;;0.75;;
17494;SDS011;8864;51.970;4.614;2023-07-29T00:13:55;3.63;;;0.80;;
17494;SDS011;8864;51.970;4.614;2023-07-29T00:16:23;1.30;;;0.70;;
17494;SDS011;8864;51.970;4.614;2023-07-29T00:18:51;1.58;;;0.70;;
17494;SDS011;8864;51.970;4.614;2023-07-29T00:21:18;1.80;;;0.82;;
17494;SDS011;8864;51.970;4.614;2023-07-29T00:23:45;2.70;;;0.70;;
17494;SDS011;8864;51.970;4.614;2023-07-29T00:26:12;2.70;;;0.90;;
17494;SDS011;8864;51.970;4.614;2023-07-29T00:28:39;1.17;;;0.68;;
17494;SDS011;8864;51.970;4.614;2023-07-29T00:31:06;2.35;;;0.90;;
17494;SDS011;8864;51.970;4.614;2023-07-29T00:33:34;1.65;;;0.80;;
17494;SDS011;8864;51.970;4.614;2023-07-29T00:36:01;3.60;;;0.75;;
17494;SDS011;8864;51.970;4.614;2023-07-29T00:38:28;2.25;;;0.80;;
17494;SDS011;8864;51.970;4.614;2023-07-29T00:40:55;1.20;;;0.60;;
17494;SDS011;8864;51.970;4.614;2023-07-29T00:43:23;3.03;;;0.82;;
17494;SDS011;8864;51.970;4.614;2023-07-29T00:45:50;1.92;;;1.00;;
17494;SDS011;8864;51.970;4.614;2023-07-29T00:48:17;2.13;;;0.80;;
17494;SDS011;8864;51.970;4.614;2023-07-29T00:50:47;3.17;;;0.80;;
17494;SDS011;8864;51.970;4.614;2023-07-29T00:53:14;2.47;;;1.02;;
17494;SDS011;8864;51.970;4.614;2023-07-29T00:55:41;1.83;;;0.77;;
17494;SDS011;8864;51.970;4.614;2023-07-29T00:58:09;1.73;;;0.80;;
17494;SDS011;8864;51.970;4.614;2023-07-29T01:00:36;2.90;;;0.88;;
17494;SDS011;8864;51.970;4.614;2023-07-29T01:03:03;3.45;;;0.93;;
17494;SDS011;8864;51.970;4.614;2023-07-29T01:05:32;3.97;;;1.20;;
17494;SDS011;8864;51.970;4.614;2023-07-29T01:08:09;4.25;;;1.10;;
17494;SDS011;8864;51.970;4.614;2023-07-29T01:10:46;2.55;;;1.10;;
17494;SDS011;8864;51.970;4.614;2023-07-29T01:13:23;2.63;;;1.13;;
17494;SDS011;8864;51.970;4.614;2023-07-29T01:15:58;2.97;;;0.93;;
17494;SDS011;8864;51.970;4.614;2023-07-29T01:18:30;4.15;;;1.35;;
17494;SDS011;8864;51.970;4.614;2023-07-29T01:20:59;4.68;;;1.25;;
17494;SDS011;8864;51.970;4.614;2023-07-29T01:23:30;2.08;;;0.88;;
17494;SDS011;8864;51.970;4.614;2023-07-29T01:25:58;2.10;;;1.05;;
17494;SDS011;8864;51.970;4.614;2023-07-29T01:28:25;1.73;;;0.85;;
17494;SDS011;8864;51.970;4.614;2023-07-29T01:30:55;2.45;;;1.25;;
17494;SDS011;8864;51.970;4.614;2023-07-29T01:33:26;1.25;;;0.82;;
17494;SDS011;8864;51.970;4.614;2023-07-29T01:35:57;1.95;;;0.95;;
17494;SDS011;8864;51.970;4.614;2023-07-29T01:38:28;2.60;;;1.00;;
17494;SDS011;8864;51.970;4.614;2023-07-29T01:41:00;2.80;;;0.90;;
17494;SDS011;8864;51.970;4.614;2023-07-29T01:43:28;2.75;;;0.90;;
17494;SDS011;8864;51.970;4.614;2023-07-29T01:45:55;1.58;;;0.90;;
17494;SDS011;8864;51.970;4.614;2023-07-29T01:48:22;1.77;;;0.80;;
17494;SDS011;8864;51.970;4.614;2023-07-29T01:50:49;4.45;;;1.02;;
17494;SDS011;8864;51.970;4.614;2023-07-29T01:53:16;5.00;;;1.02;;
17494;SDS011;8864;51.970;4.614;2023-07-29T01:55:45;0.98;;;0.80;;
17494;SDS011;8864;51.970;4.614;2023-07-29T01:58:12;1.67;;;0.70;;
17494;SDS011;8864;51.970;4.614;2023-07-29T02:00:39;3.47;;;0.90;;
17494;SDS011;8864;51.970;4.614;2023-07-29T02:03:06;1.85;;;0.75;;
17494;SDS011;8864;51.970;4.614;2023-07-29T02:05:33;2.30;;;0.82;;
17494;SDS011;8864;51.970;4.614;2023-07-29T02:08:00;1.85;;;1.00;;
17494;SDS011;8864;51.970;4.614;2023-07-29T02:10:27;2.97;;;1.42;;
17494;SDS011;8864;51.970;4.614;2023-07-29T02:12:55;2.45;;;0.77;;
17494;SDS011;8864;51.970;4.614;2023-07-29T02:15:22;1.77;;;0.75;;
17494;SDS011;8864;51.970;4.614;2023-07-29T02:17:50;2.08;;;0.98;;
17494;SDS011;8864;51.970;4.614;2023-07-29T02:20:17;1.75;;;0.77;;
17494;SDS011;8864;51.970;4.614;2023-07-29T02:22:44;1.13;;;0.80;;
17494;SDS011;8864;51.970;4.614;2023-07-29T02:25:11;1.67;;;1.00;;
17494;SDS011;8864;51.970;4.614;2023-07-29T02:27:38;1.73;;;1.00;;
17494;SDS011;8864;51.970;4.614;2023-07-29T02:30:07;1.98;;;1.00;;
17494;SDS011;8864;51.970;4.614;2023-07-29T02:32:35;2.17;;;1.08;;
17494;SDS011;8864;51.970;4.614;2023-07-29T02:35:02;1.83;;;0.90;;
17494;SDS011;8864;51.970;4.614;2023-07-29T02:37:30;1.50;;;0.90;;
17494;SDS011;8864;51.970;4.614;2023-07-29T02:39:57;1.80;;;1.00;;
17494;SDS011;8864;51.970;4.614;2023-07-29T02:42:24;2.88;;;1.00;;
17494;SDS011;8864;51.970;4.614;2023-07-29T02:44:51;1.77;;;0.90;;
17494;SDS011;8864;51.970;4.614;2023-07-29T02:47:19;2.15;;;1.17;;
17494;SDS011;8864;51.970;4.614;2023-07-29T02:49:46;2.28;;;1.30;;
17494;SDS011;8864;51.970;4.614;2023-07-29T02:52:13;1.80;;;0.90;;
17494;SDS011;8864;51.970;4.614;2023-07-29T02:54:40;0.98;;;0.70;;
17494;SDS011;8864;51.970;4.614;2023-07-29T02:57:07;1.92;;;0.85;;
17494;SDS011;8864;51.970;4.614;2023-07-29T02:59:34;1.98;;;0.90;;
17494;SDS011;8864;51.970;4.614;2023-07-29T03:02:01;1.15;;;0.88;;
17494;SDS011;8864;51.970;4.614;2023-07-29T03:04:29;1.40;;;0.88;;
17494;SDS011;8864;51.970;4.614;2023-07-29T03:06:56;2.08;;;0.98;;
17494;SDS011;8864;51.970;4.614;2023-07-29T03:09:24;1.65;;;1.00;;
17494;SDS011;8864;51.970;4.614;2023-07-29T03:11:51;1.02;;;0.88;;
17494;SDS011;8864;51.970;4.614;2023-07-29T03:14:19;2.40;;;0.80;;
17494;SDS011;8864;51.970;4.614;2023-07-29T03:16:47;3.22;;;0.80;;
17494;SDS011;8864;51.970;4.614;2023-07-29T03:19:14;2.30;;;1.05;;
17494;SDS011;8864;51.970;4.614;2023-07-29T03:21:43;2.47;;;1.13;;
17494;SDS011;8864;51.970;4.614;2023-07-29T03:24:11;1.52;;;0.80;;
17494;SDS011;8864;51.970;4.614;2023-07-29T03:26:37;2.72;;;1.20;;
17494;SDS011;8864;51.970;4.614;2023-07-29T03:29:04;2.15;;;1.00;;
17494;SDS011;8864;51.970;4.614;2023-07-29T03:31:31;3.05;;;1.00;;
17494;SDS011;8864;51.970;4.614;2023-07-29T03:33:58;1.90;;;1.00;;
17494;SDS011;8864;51.970;4.614;2023-07-29T03:36:25;1.10;;;0.80;;
17494;SDS011;8864;51.970;4.614;2023-07-29T03:38:53;1.80;;;0.90;;
17494;SDS011;8864;51.970;4.614;2023-07-29T03:41:20;1.83;;;1.05;;
17494;SDS011;8864;51.970;4.614;2023-07-29T03:43:47;1.60;;;1.08;;
17494;SDS011;8864;51.970;4.614;2023-07-29T03:46:14;3.63;;;0.82;;
17494;SDS011;8864;51.970;4.614;2023-07-29T03:48:44;2.42;;;0.73;;
17494;SDS011;8864;51.970;4.614;2023-07-29T03:51:11;7.05;;;1.00;;
17494;SDS011;8864;51.970;4.614;2023-07-29T03:53:38;1.42;;;0.90;;
17494;SDS011;8864;51.970;4.614;2023-07-29T03:56:06;1.88;;;0.90;;
17494;SDS011;8864;51.970;4.614;2023-07-29T03:58:34;2.55;;;1.17;;
17494;SDS011;8864;51.970;4.614;2023-07-29T04:01:01;1.98;;;1.00;;
17494;SDS011;8864;51.970;4.614;2023-07-29T04:03:29;1.40;;;0.98;;
17494;SDS011;8864;51.970;4.614;2023-07-29T04:05:56;1.70;;;1.00;;
17494;SDS011;8864;51.970;4.614;2023-07-29T04:08:23;1.27;;;0.98;;
17494;SDS011;8864;51.970;4.614;2023-07-29T04:10:50;2.53;;;1.20;;
17494;SDS011;8864;51.970;4.614;2023-07-29T04:13:19;1.88;;;0.90;;
17494;SDS011;8864;51.970;4.614;2023-07-29T04:15:46;1.73;;;1.05;;
17494;SDS011;8864;51.970;4.614;2023-07-29T04:18:13;4.78;;;0.73;;
17494;SDS011;8864;51.970;4.614;2023-07-29T04:20:40;1.55;;;1.00;;
17494;SDS011;8864;51.970;4.614;2023-07-29T04:23:07;2.92;;;1.20;;
17494;SDS011;8864;51.970;4.614;2023-07-29T04:25:34;2.28;;;1.15;;
17494;SDS011;8864;51.970;4.614;2023-07-29T04:28:00;2.45;;;1.25;;
17494;SDS011;8864;51.970;4.614;2023-07-29T04:30:31;2.22;;;0.95;;
17494;SDS011;8864;51.970;4.614;2023-07-29T04:32:58;1.75;;;0.88;;
17494;SDS011;8864;51.970;4.614;2023-07-29T04:35:25;1.23;;;0.95;;
17494;SDS011;8864;51.970;4.614;2023-07-29T04:37:52;3.10;;;1.13;;
17494;SDS011;8864;51.970;4.614;2023-07-29T04:40:19;2.20;;;1.10;;
17494;SDS011;8864;51.970;4.614;2023-07-29T04:42:47;2.47;;;1.35;;
17494;SDS011;8864;51.970;4.614;2023-07-29T04:45:14;3.65;;;1.10;;
17494;SDS011;8864;51.970;4.614;2023-07-29T04:47:43;5.10;;;1.70;;
17494;SDS011;8864;51.970;4.614;2023-07-29T04:50:10;25.17;;;3.80;;
17494;SDS011;8864;51.970;4.614;2023-07-29T04:52:37;20.23;;;4.78;;
17494;SDS011;8864;51.970;4.614;2023-07-29T04:55:04;18.98;;;4.20;;
17494;SDS011;8864;51.970;4.614;2023-07-29T04:57:31;15.57;;;3.17;;
17494;SDS011;8864;51.970;4.614;2023-07-29T04:59:58;16.42;;;3.03;;
17494;SDS011;8864;51.970;4.614;2023-07-29T05:02:25;16.73;;;3.17;;
17494;SDS011;8864;51.970;4.614;2023-07-29T05:04:53;9.13;;;2.30;;
17494;SDS011;8864;51.970;4.614;2023-07-29T05:07:20;7.30;;;2.42;;
17494;SDS011;8864;51.970;4.614;2023-07-29T05:09:47;7.75;;;2.20;;
17494;SDS011;8864;51.970;4.614;2023-07-29T05:12:14;14.95;;;2.40;;
17494;SDS011;8864;51.970;4.614;2023-07-29T05:14:41;9.82;;;1.92;;
17494;SDS011;8864;51.970;4.614;2023-07-29T05:17:08;10.50;;;2.42;;
17494;SDS011;8864;51.970;4.614;2023-07-29T05:19:35;5.68;;;1.90;;
17494;SDS011;8864;51.970;4.614;2023-07-29T05:22:04;5.45;;;1.92;;
17494;SDS011;8864;51.970;4.614;2023-07-29T05:24:31;6.57;;;1.77;;
17494;SDS011;8864;51.970;4.614;2023-07-29T05:26:58;9.75;;;1.73;;
17494;SDS011;8864;51.970;4.614;2023-07-29T05:29:25;7.55;;;1.80;;
17494;SDS011;8864;51.970;4.614;2023-07-29T05:31:51;5.90;;;1.60;;
17494;SDS011;8864;51.970;4.614;2023-07-29T05:34:18;3.78;;;1.50;;
17494;SDS011;8864;51.970;4.614;2023-07-29T05:36:45;4.07;;;1.85;;
17494;SDS011;8864;51.970;4.614;2023-07-29T05:39:13;3.50;;;1.70;;
17494;SDS011;8864;51.970;4.614;2023-07-29T05:41:40;4.68;;;1.52;;
17494;SDS011;8864;51.970;4.614;2023-07-29T05:44:08;4.82;;;1.80;;
17494;SDS011;8864;51.970;4.614;2023-07-29T05:46:35;2.65;;;1.45;;
17494;SDS011;8864;51.970;4.614;2023-07-29T05:49:02;6.10;;;1.40;;
17494;SDS011;8864;51.970;4.614;2023-07-29T05:51:29;2.28;;;1.45;;
17494;SDS011;8864;51.970;4.614;2023-07-29T05:53:56;3.67;;;1.70;;
17494;SDS011;8864;51.970;4.614;2023-07-29T05:56:25;3.72;;;1.60;;
17494;SDS011;8864;51.970;4.614;2023-07-29T05:58:51;3.88;;;1.48;;
17494;SDS011;8864;51.970;4.614;2023-07-29T06:01:18;5.28;;;1.63;;
17494;SDS011;8864;51.970;4.614;2023-07-29T06:03:46;3.17;;;1.40;;
17494;SDS011;8864;51.970;4.614;2023-07-29T06:06:13;3.40;;;1.67;;
17494;SDS011;8864;51.970;4.614;2023-07-29T06:08:40;4.20;;;1.65;;
17494;SDS011;8864;51.970;4.614;2023-07-29T06:11:07;3.65;;;1.23;;
17494;SDS011;8864;51.970;4.614;2023-07-29T06:13:35;3.58;;;1.48;;
17494;SDS011;8864;51.970;4.614;2023-07-29T06:16:02;5.22;;;1.70;;
17494;SDS011;8864;51.970;4.614;2023-07-29T06:18:29;7.25;;;1.73;;
17494;SDS011;8864;51.970;4.614;2023-07-29T06:20:56;3.78;;;1.60;;
17494;SDS011;8864;51.970;4.614;2023-07-29T06:23:23;4.40;;;1.70;;
17494;SDS011;8864;51.970;4.614;2023-07-29T06:25:50;4.68;;;1.55;;
17494;SDS011;8864;51.970;4.614;2023-07-29T06:28:17;2.55;;;1.33;;
17494;SDS011;8864;51.970;4.614;2023-07-29T06:30:45;2.92;;;1.60;;
17494;SDS011;8864;51.970;4.614;2023-07-29T06:33:12;6.85;;;1.80;;
17494;SDS011;8864;51.970;4.614;2023-07-29T06:35:39;2.83;;;1.60;;
17494;SDS011;8864;51.970;4.614;2023-07-29T06:38:07;6.43;;;1.77;;
17494;SDS011;8864;51.970;4.614;2023-07-29T06:40:34;5.50;;;1.77;;
17494;SDS011;8864;51.970;4.614;2023-07-29T06:43:01;5.53;;;1.77;;
17494;SDS011;8864;51.970;4.614;2023-07-29T06:45:28;5.60;;;2.17;;
17494;SDS011;8864;51.970;4.614;2023-07-29T06:47:56;5.93;;;1.58;;
17494;SDS011;8864;51.970;4.614;2023-07-29T06:50:23;9.25;;;1.92;;
17494;SDS011;8864;51.970;4.614;2023-07-29T06:52:50;2.95;;;1.75;;
17494;SDS011;8864;51.970;4.614;2023-07-29T06:55:17;6.07;;;2.10;;
17494;SDS011;8864;51.970;4.614;2023-07-29T06:57:44;5.65;;;2.10;;
17494;SDS011;8864;51.970;4.614;2023-07-29T07:00:11;5.00;;;2.08;;
17494;SDS011;8864;51.970;4.614;2023-07-29T07:02:38;8.35;;;1.83;;
17494;SDS011;8864;51.970;4.614;2023-07-29T07:05:08;7.28;;;1.80;;
17494;SDS011;8864;51.970;4.614;2023-07-29T07:07:35;5.45;;;1.77;;
17494;SDS011;8864;51.970;4.614;2023-07-29T07:10:03;4.60;;;1.67;;
17494;SDS011;8864;51.970;4.614;2023-07-29T07:12:30;7.43;;;1.80;;
17494;SDS011;8864;51.970;4.614;2023-07-29T07:14:57;5.50;;;2.10;;
17494;SDS011;8864;51.970;4.614;2023-07-29T07:17:24;4.30;;;1.83;;
17494;SDS011;8864;51.970;4.614;2023-07-29T07:19:51;3.97;;;2.10;;
17494;SDS011;8864;51.970;4.614;2023-07-29T07:22:20;2.67;;;1.80;;
17494;SDS011;8864;51.970;4.614;2023-07-29T07:24:46;4.75;;;1.73;;
17494;SDS011;8864;51.970;4.614;2023-07-29T07:27:13;4.10;;;2.13;;
17494;SDS011;8864;51.970;4.614;2023-07-29T07:29:40;4.45;;;1.90;;
17494;SDS011;8864;51.970;4.614;2023-07-29T07:32:07;4.72;;;1.92;;
17494;SDS011;8864;51.970;4.614;2023-07-29T07:34:34;6.15;;;2.00;;
17494;SDS011;8864;51.970;4.614;2023-07-29T07:37:01;4.38;;;1.95;;
17494;SDS011;8864;51.970;4.614;2023-07-29T07:39:30;4.22;;;1.92;;
17494;SDS011;8864;51.970;4.614;2023-07-29T07:41:57;2.35;;;1.55;;
17494;SDS011;8864;51.970;4.614;2023-07-29T07:44:24;4.03;;;1.88;;
17494;SDS011;8864;51.970;4.614;2023-07-29T07:46:52;5.40;;;2.13;;
17494;SDS011;8864;51.970;4.614;2023-07-29T07:49:19;5.07;;;1.88;;
17494;SDS011;8864;51.970;4.614;2023-07-29T07:51:46;4.82;;;2.00;;
17494;SDS011;8864;51.970;4.614;2023-07-29T07:54:13;2.88;;;1.83;;
17494;SDS011;8864;51.970;4.614;2023-07-29T07:56:42;4.65;;;1.95;;
17494;SDS011;8864;51.970;4.614;2023-07-29T07:59:09;5.80;;;2.35;;
17494;SDS011;8864;51.970;4.614;2023-07-29T08:01:36;4.45;;;2.05;;
17494;SDS011;8864;51.970;4.614;2023-07-29T08:04:03;4.57;;;1.92;;
17494;SDS011;8864;51.970;4.614;2023-07-29T08:06:30;4.45;;;2.20;;
17494;SDS011;8864;51.970;4.614;2023-07-29T08:08:57;3.72;;;2.10;;
17494;SDS011;8864;51.970;4.614;2023-07-29T08:11:24;3.05;;;1.92;;
17494;SDS011;8864;51.970;4.614;2023-07-29T08:13:53;4.72;;;2.05;;
17494;SDS011;8864;51.970;4.614;2023-07-29T08:16:20;6.32;;;2.17;;
17494;SDS011;8864;51.970;4.614;2023-07-29T08:18:47;4.57;;;1.73;;
17494;SDS011;8864;51.970;4.614;2023-07-29T08:21:14;4.45;;;1.80;;
17494;SDS011;8864;51.970;4.614;2023-07-29T08:23:40;4.65;;;2.20;;
17494;SDS011;8864;51.970;4.614;2023-07-29T08:26:07;4.20;;;2.05;;
17494;SDS011;8864;51.970;4.614;2023-07-29T08:28:34;6.80;;;2.72;;
17494;SDS011;8864;51.970;4.614;2023-07-29T08:31:04;7.05;;;3.17;;
17494;SDS011;8864;51.970;4.614;2023-07-29T08:33:32;3.50;;;2.47;;
17494;SDS011;8864;51.970;4.614;2023-07-29T08:36:00;5.38;;;2.65;;
17494;SDS011;8864;51.970;4.614;2023-07-29T08:38:27;6.45;;;2.65;;
17494;SDS011;8864;51.970;4.614;2023-07-29T08:40:56;7.00;;;2.80;;
17494;SDS011;8864;51.970;4.614;2023-07-29T08:43:26;4.78;;;2.45;;
17494;SDS011;8864;51.970;4.614;2023-07-29T08:45:56;6.07;;;2.85;;
17494;SDS011;8864;51.970;4.614;2023-07-29T08:48:27;6.05;;;2.83;;
17494;SDS011;8864;51.970;4.614;2023-07-29T08:50:58;5.05;;;2.40;;
17494;SDS011;8864;51.970;4.614;2023-07-29T08:53:27;4.88;;;2.15;;
17494;SDS011;8864;51.970;4.614;2023-07-29T08:55:54;4.95;;;2.35;;
17494;SDS011;8864;51.970;4.614;2023-07-29T08:58:22;5.25;;;2.30;;
17494;SDS011;8864;51.970;4.614;2023-07-29T09:00:50;7.55;;;2.55;;
17494;SDS011;8864;51.970;4.614;2023-07-29T09:03:17;7.10;;;3.30;;
17494;SDS011;8864;51.970;4.614;2023-07-29T09:05:45;6.47;;;3.13;;
17494;SDS011;8864;51.970;4.614;2023-07-29T09:08:13;6.72;;;2.83;;
17494;SDS011;8864;51.970;4.614;2023-07-29T09:10:40;8.13;;;3.40;;
17494;SDS011;8864;51.970;4.614;2023-07-29T09:13:07;6.78;;;2.80;;
17494;SDS011;8864;51.970;4.614;2023-07-29T09:15:35;5.97;;;3.00;;
17494;SDS011;8864;51.970;4.614;2023-07-29T09:18:09;6.18;;;2.75;;
17494;SDS011;8864;51.970;4.614;2023-07-29T09:20:37;5.65;;;3.10;;
17494;SDS011;8864;51.970;4.614;2023-07-29T09:23:06;6.57;;;3.00;;
17494;SDS011;8864;51.970;4.614;2023-07-29T09:25:36;5.07;;;2.80;;
17494;SDS011;8864;51.970;4.614;2023-07-29T09:28:07;5.35;;;3.28;;
17494;SDS011;8864;51.970;4.614;2023-07-29T09:30:35;5.90;;;3.38;;
17494;SDS011;8864;51.970;4.614;2023-07-29T09:33:01;6.68;;;3.13;;
17494;SDS011;8864;51.970;4.614;2023-07-29T09:35:30;6.20;;;3.40;;
17494;SDS011;8864;51.970;4.614;2023-07-29T09:37:59;8.48;;;4.05;;
17494;SDS011;8864;51.970;4.614;2023-07-29T09:40:27;5.57;;;3.20;;
17494;SDS011;8864;51.970;4.614;2023-07-29T09:43:00;10.70;;;3.70;;
17494;SDS011;8864;51.970;4.614;2023-07-29T09:45:27;7.57;;;3.80;;
17494;SDS011;8864;51.970;4.614;2023-07-29T09:47:55;6.38;;;3.38;;
17494;SDS011;8864;51.970;4.614;2023-07-29T09:50:23;8.02;;;3.85;;
17494;SDS011;8864;51.970;4.614;2023-07-29T09:52:51;6.00;;;3.63;;
17494;SDS011;8864;51.970;4.614;2023-07-29T09:55:19;6.47;;;3.45;;
17494;SDS011;8864;51.970;4.614;2023-07-29T09:57:52;8.07;;;3.53;;
17494;SDS011;8864;51.970;4.614;2023-07-29T10:00:20;7.07;;;3.38;;
17494;SDS011;8864;51.970;4.614;2023-07-29T10:02:47;6.43;;;3.67;;
17494;SDS011;8864;51.970;4.614;2023-07-29T10:05:15;8.90;;;3.85;;
17494;SDS011;8864;51.970;4.614;2023-07-29T10:07:42;6.63;;;3.80;;
17494;SDS011;8864;51.970;4.614;2023-07-29T10:10:09;8.60;;;3.70;;
17494;SDS011;8864;51.970;4.614;2023-07-29T10:12:39;7.93;;;3.80;;
17494;SDS011;8864;51.970;4.614;2023-07-29T10:15:09;6.93;;;3.50;;
17494;SDS011;8864;51.970;4.614;2023-07-29T10:17:37;8.85;;;3.80;;
17494;SDS011;8864;51.970;4.614;2023-07-29T10:20:05;7.65;;;3.72;;
17494;SDS011;8864;51.970;4.614;2023-07-29T10:22:34;8.95;;;3.80;;
17494;SDS011;8864;51.970;4.614;2023-07-29T10:25:03;11.02;;;4.43;;
17494;SDS011;8864;51.970;4.614;2023-07-29T10:27:35;12.75;;;4.93;;
17494;SDS011;8864;51.970;4.614;2023-07-29T10:30:10;13.85;;;6.05;;
17494;SDS011;8864;51.970;4.614;2023-07-29T10:32:38;10.05;;;5.35;;
17494;SDS011;8864;51.970;4.614;2023-07-29T10:35:08;12.63;;;6.20;;
17494;SDS011;8864;51.970;4.614;2023-07-29T10:37:36;11.00;;;5.30;;
17494;SDS011;8864;51.970;4.614;2023-07-29T10:40:05;11.98;;;5.95;;
17494;SDS011;8864;51.970;4.614;2023-07-29T10:42:34;12.23;;;5.10;;
17494;SDS011;8864;51.970;4.614;2023-07-29T10:47:54;10.23;;;5.20;;
17494;SDS011;8864;51.970;4.614;2023-07-29T10:50:22;11.30;;;5.18;;
17494;SDS011;8864;51.970;4.614;2023-07-29T10:52:49;8.73;;;4.93;;
17494;SDS011;8864;51.970;4.614;2023-07-29T10:55:24;9.15;;;4.93;;
17494;SDS011;8864;51.970;4.614;2023-07-29T10:57:54;10.88;;;5.32;;
17494;SDS011;8864;51.970;4.614;2023-07-29T11:00:31;13.40;;;5.53;;
17494;SDS011;8864;51.970;4.614;2023-07-29T11:03:00;11.60;;;5.40;;
17494;SDS011;8864;51.970;4.614;2023-07-29T11:05:43;13.07;;;5.95;;
17494;SDS011;8864;51.970;4.614;2023-07-29T11:08:16;12.70;;;5.65;;
17494;SDS011;8864;51.970;4.614;2023-07-29T11:10:45;13.65;;;6.22;;
17494;SDS011;8864;51.970;4.614;2023-07-29T11:13:25;10.82;;;5.47;;
17494;SDS011;8864;51.970;4.614;2023-07-29T11:15:53;11.77;;;5.60;;
17494;SDS011;8864;51.970;4.614;2023-07-29T11:18:22;10.02;;;5.38;;
17494;SDS011;8864;51.970;4.614;2023-07-29T11:20:53;10.85;;;5.72;;
17494;SDS011;8864;51.970;4.614;2023-07-29T11:23:20;13.45;;;6.25;;
17494;SDS011;8864;51.970;4.614;2023-07-29T11:25:54;12.07;;;6.13;;
17494;SDS011;8864;51.970;4.614;2023-07-29T11:28:21;10.10;;;5.53;;
17494;SDS011;8864;51.970;4.614;2023-07-29T11:30:49;11.02;;;5.82;;
17494;SDS011;8864;51.970;4.614;2023-07-29T11:33:17;12.82;;;6.35;;
17494;SDS011;8864;51.970;4.614;2023-07-29T11:35:47;10.07;;;5.57;;
17494;SDS011;8864;51.970;4.614;2023-07-29T11:38:17;10.15;;;5.43;;
17494;SDS011;8864;51.970;4.614;2023-07-29T11:40:53;11.18;;;5.57;;
17494;SDS011;8864;51.970;4.614;2023-07-29T11:43:21;9.43;;;5.18;;
17494;SDS011;8864;51.970;4.614;2023-07-29T11:45:48;10.90;;;5.45;;
17494;SDS011;8864;51.970;4.614;2023-07-29T11:48:15;10.32;;;4.85;;
17494;SDS011;8864;51.970;4.614;2023-07-29T11:50:42;14.02;;;5.55;;
17494;SDS011;8864;51.970;4.614;2023-07-29T11:53:11;18.98;;;5.25;;
17494;SDS011;8864;51.970;4.614;2023-07-29T11:55:38;10.20;;;5.13;;
17494;SDS011;8864;51.970;4.614;2023-07-29T11:58:05;15.40;;;5.38;;
17494;SDS011;8864;51.970;4.614;2023-07-29T12:00:32;14.20;;;4.75;;
17494;SDS011;8864;51.970;4.614;2023-07-29T12:03:00;10.15;;;4.78;;
17494;SDS011;8864;51.970;4.614;2023-07-29T12:05:27;10.90;;;4.50;;
17494;SDS011;8864;51.970;4.614;2023-07-29T12:07:55;14.05;;;4.70;;
17494;SDS011;8864;51.970;4.614;2023-07-29T12:10:23;13.00;;;4.10;;
17494;SDS011;8864;51.970;4.614;2023-07-29T12:12:51;8.63;;;4.75;;
17494;SDS011;8864;51.970;4.614;2023-07-29T12:15:24;9.05;;;4.68;;
17494;SDS011;8864;51.970;4.614;2023-07-29T12:17:53;10.27;;;4.80;;
17494;SDS011;8864;51.970;4.614;2023-07-29T12:20:23;13.73;;;5.00;;
17494;SDS011;8864;51.970;4.614;2023-07-29T12:22:52;8.38;;;4.25;;
17494;SDS011;8864;51.970;4.614;2023-07-29T12:25:19;9.13;;;4.93;;
17494;SDS011;8864;51.970;4.614;2023-07-29T12:27:48;10.23;;;4.25;;
17494;SDS011;8864;51.970;4.614;2023-07-29T12:30:15;10.10;;;4.45;;
17494;SDS011;8864;51.970;4.614;2023-07-29T12:32:43;8.70;;;4.15;;
17494;SDS011;8864;51.970;4.614;2023-07-29T12:35:11;8.18;;;4.00;;
17494;SDS011;8864;51.970;4.614;2023-07-29T12:37:38;9.38;;;4.43;;
17494;SDS011;8864;51.970;4.614;2023-07-29T12:40:08;8.90;;;4.05;;
17494;SDS011;8864;51.970;4.614;2023-07-29T12:42:47;7.93;;;4.30;;
17494;SDS011;8864;51.970;4.614;2023-07-29T12:45:15;8.43;;;4.35;;
17494;SDS011;8864;51.970;4.614;2023-07-29T12:47:42;8.38;;;4.30;;
17494;SDS011;8864;51.970;4.614;2023-07-29T12:50:09;7.88;;;4.13;;
17494;SDS011;8864;51.970;4.614;2023-07-29T12:52:37;9.27;;;4.38;;
17494;SDS011;8864;51.970;4.614;2023-07-29T12:55:04;6.85;;;3.83;;
17494;SDS011;8864;51.970;4.614;2023-07-29T12:57:33;9.90;;;4.05;;
17494;SDS011;8864;51.970;4.614;2023-07-29T13:00:02;7.88;;;4.05;;
17494;SDS011;8864;51.970;4.614;2023-07-29T13:02:30;6.90;;;4.07;;
17494;SDS011;8864;51.970;4.614;2023-07-29T13:04:57;6.97;;;3.70;;
17494;SDS011;8864;51.970;4.614;2023-07-29T13:07:24;7.05;;;3.80;;
17494;SDS011;8864;51.970;4.614;2023-07-29T13:09:51;8.57;;;3.90;;
17494;SDS011;8864;51.970;4.614;2023-07-29T13:12:18;8.95;;;3.90;;
17494;SDS011;8864;51.970;4.614;2023-07-29T13:14:46;7.05;;;4.00;;
17494;SDS011;8864;51.970;4.614;2023-07-29T13:17:14;7.03;;;3.75;;
17494;SDS011;8864;51.970;4.614;2023-07-29T13:19:41;7.60;;;4.10;;
17494;SDS011;8864;51.970;4.614;2023-07-29T13:22:08;7.38;;;3.30;;
17494;SDS011;8864;51.970;4.614;2023-07-29T13:24:35;8.38;;;3.92;;
17494;SDS011;8864;51.970;4.614;2023-07-29T13:27:02;6.13;;;3.42;;
17494;SDS011;8864;51.970;4.614;2023-07-29T13:29:30;5.47;;;3.22;;
17494;SDS011;8864;51.970;4.614;2023-07-29T13:31:57;7.03;;;3.72;;
17494;SDS011;8864;51.970;4.614;2023-07-29T13:34:25;6.15;;;3.55;;
17494;SDS011;8864;51.970;4.614;2023-07-29T13:36:52;9.00;;;4.00;;
17494;SDS011;8864;51.970;4.614;2023-07-29T13:39:19;5.78;;;3.10;;
17494;SDS011;8864;51.970;4.614;2023-07-29T13:41:46;6.00;;;3.30;;
17494;SDS011;8864;51.970;4.614;2023-07-29T13:44:13;7.45;;;3.63;;
17494;SDS011;8864;51.970;4.614;2023-07-29T13:46:40;6.40;;;3.28;;
17494;SDS011;8864;51.970;4.614;2023-07-29T13:49:07;7.07;;;3.60;;
17494;SDS011;8864;51.970;4.614;2023-07-29T13:51:35;5.72;;;3.03;;
17494;SDS011;8864;51.970;4.614;2023-07-29T13:54:02;6.35;;;3.40;;
17494;SDS011;8864;51.970;4.614;2023-07-29T13:56:29;6.10;;;3.20;;
17494;SDS011;8864;51.970;4.614;2023-07-29T13:58:56;5.97;;;3.25;;
17494;SDS011;8864;51.970;4.614;2023-07-29T14:01:23;5.32;;;2.92;;
17494;SDS011;8864;51.970;4.614;2023-07-29T14:03:50;6.22;;;3.13;;
17494;SDS011;8864;51.970;4.614;2023-07-29T14:06:17;4.90;;;3.05;;
17494;SDS011;8864;51.970;4.614;2023-07-29T14:08:45;6.38;;;3.03;;
17494;SDS011;8864;51.970;4.614;2023-07-29T14:11:12;7.10;;;3.25;;
17494;SDS011;8864;51.970;4.614;2023-07-29T14:13:39;7.47;;;3.47;;
17494;SDS011;8864;51.970;4.614;2023-07-29T14:16:06;6.40;;;3.15;;
17494;SDS011;8864;51.970;4.614;2023-07-29T14:18:33;4.55;;;2.88;;
17494;SDS011;8864;51.970;4.614;2023-07-29T14:21:00;5.88;;;2.88;;
17494;SDS011;8864;51.970;4.614;2023-07-29T14:23:27;6.07;;;3.20;;
17494;SDS011;8864;51.970;4.614;2023-07-29T14:25:56;7.38;;;3.08;;
17494;SDS011;8864;51.970;4.614;2023-07-29T14:28:23;5.78;;;2.65;;
17494;SDS011;8864;51.970;4.614;2023-07-29T14:30:50;5.30;;;2.88;;
17494;SDS011;8864;51.970;4.614;2023-07-29T14:33:17;5.22;;;3.05;;
17494;SDS011;8864;51.970;4.614;2023-07-29T14:35:44;6.32;;;2.63;;
17494;SDS011;8864;51.970;4.614;2023-07-29T14:38:11;5.65;;;2.83;;
17494;SDS011;8864;51.970;4.614;2023-07-29T14:40:38;5.07;;;2.70;;
17494;SDS011;8864;51.970;4.614;2023-07-29T14:43:06;4.75;;;2.72;;
17494;SDS011;8864;51.970;4.614;2023-07-29T14:45:33;5.63;;;2.83;;
17494;SDS011;8864;51.970;4.614;2023-07-29T14:48:00;4.63;;;2.70;;
17494;SDS011;8864;51.970;4.614;2023-07-29T14:50:27;4.68;;;2.50;;
17494;SDS011;8864;51.970;4.614;2023-07-29T14:52:54;4.30;;;2.70;;
17494;SDS011;8864;51.970;4.614;2023-07-29T14:55:21;5.53;;;2.80;;
17494;SDS011;8864;51.970;4.614;2023-07-29T14:57:48;4.68;;;2.70;;
17494;SDS011;8864;51.970;4.614;2023-07-29T15:00:16;5.18;;;2.70;;
17494;SDS011;8864;51.970;4.614;2023-07-29T15:02:43;3.75;;;2.53;;
17494;SDS011;8864;51.970;4.614;2023-07-29T15:05:10;4.80;;;2.83;;
17494;SDS011;8864;51.970;4.614;2023-07-29T15:07:37;4.38;;;2.38;;